createdAt,value
2018-11-26T00:01:14.983Z,6.80
2018-11-26T00:03:44.804Z,7.33
2018-11-26T00:06:14.594Z,7.27
2018-11-26T00:08:44.483Z,8.03
2018-11-26T00:11:40.898Z,7.17
2018-11-26T00:14:11.257Z,6.47
2018-11-26T00:16:41.294Z,6.80
2018-11-26T00:19:11.413Z,8.10
2018-11-26T00:21:41.410Z,7.83
2018-11-26T00:24:11.023Z,7.13
2018-11-26T00:26:41.063Z,7.77
2018-11-26T00:29:11.972Z,7.90
2018-11-26T00:31:41.893Z,8.03
2018-11-26T00:34:11.280Z,8.73
2018-11-26T00:36:41.304Z,8.37
2018-11-26T00:39:12.814Z,7.83
2018-11-26T00:41:42.771Z,8.00
2018-11-26T00:44:12.794Z,8.53
2018-11-26T00:46:42.733Z,8.40
2018-11-26T00:49:12.374Z,8.27
2018-11-26T00:51:42.083Z,9.97
2018-11-26T00:54:12.474Z,9.37
2018-11-26T00:56:42.413Z,9.50
2018-11-26T00:59:12.494Z,12.43
2018-11-26T01:01:42.373Z,9.37
2018-11-26T01:04:12.244Z,9.30
2018-11-26T01:06:42.874Z,10.37
2018-11-26T01:09:13.184Z,10.00
2018-11-26T01:11:43.165Z,9.03
2018-11-26T01:14:13.704Z,10.03
2018-11-26T01:16:43.663Z,9.77
2018-11-26T01:19:13.924Z,9.37
2018-11-26T01:21:43.893Z,9.13
2018-11-26T01:24:14.278Z,9.60
2018-11-26T01:26:44.624Z,9.60
2018-11-26T01:29:14.994Z,10.07
2018-11-26T01:31:45.006Z,10.30
2018-11-26T01:34:14.805Z,10.50
2018-11-26T01:36:44.442Z,9.80
2018-11-26T01:39:14.294Z,8.43
2018-11-26T01:41:44.189Z,8.83
2018-11-26T01:44:14.214Z,8.77
2018-11-26T01:46:44.184Z,8.43
2018-11-26T01:49:14.793Z,7.40
2018-11-26T01:51:44.773Z,6.70
2018-11-26T01:54:14.840Z,6.00
2018-11-26T01:56:44.764Z,6.20
2018-11-26T01:59:15.240Z,6.40
2018-11-26T02:01:45.274Z,6.80
2018-11-26T02:04:15.523Z,6.27
2018-11-26T02:06:45.284Z,7.20
2018-11-26T02:09:15.313Z,6.37
2018-11-26T02:11:45.414Z,6.10
2018-11-26T02:14:14.795Z,6.10
2018-11-26T02:16:44.511Z,5.97
2018-11-26T02:19:14.314Z,5.67
2018-11-26T02:21:43.703Z,5.90
2018-11-26T02:24:13.307Z,6.00
2018-11-26T02:26:42.612Z,5.67
2018-11-26T02:29:12.995Z,5.80
2018-11-26T02:31:42.994Z,5.07
2018-11-26T02:34:13.104Z,5.53
2018-11-26T02:36:43.214Z,5.43
2018-11-26T02:39:13.164Z,5.37
2018-11-26T02:41:43.634Z,5.53
2018-11-26T02:44:13.724Z,4.70
2018-11-26T02:46:43.694Z,4.03
2018-11-26T02:49:13.474Z,3.67
2018-11-26T02:51:43.406Z,4.10
2018-11-26T02:54:13.183Z,3.73
2018-11-26T02:56:43.214Z,3.27
2018-11-26T02:59:13.175Z,3.40
2018-11-26T03:01:43.233Z,3.40
2018-11-26T03:04:17.094Z,3.30
2018-11-26T03:06:46.575Z,3.30
2018-11-26T03:09:16.554Z,2.50
2018-11-26T03:11:46.594Z,2.70
2018-11-26T03:14:16.664Z,2.50
2018-11-26T03:16:46.853Z,2.43
2018-11-26T03:19:17.164Z,2.27
2018-11-26T03:21:47.275Z,2.10
2018-11-26T03:24:17.253Z,1.80
2018-11-26T03:26:47.233Z,2.10
2018-11-26T03:29:17.524Z,1.70
2018-11-26T03:31:48.125Z,1.70
2018-11-26T03:34:18.105Z,1.93
2018-11-26T03:36:47.983Z,1.97
2018-11-26T03:39:17.994Z,1.60
2018-11-26T03:41:47.665Z,1.80
2018-11-26T03:44:18.661Z,1.90
2018-11-26T03:46:48.975Z,1.87
2018-11-26T03:49:18.606Z,1.60
2018-11-26T03:51:48.336Z,2.07
2018-11-26T03:54:18.246Z,1.80
2018-11-26T03:56:48.144Z,1.90
2018-11-26T03:59:18.005Z,1.60
2018-11-26T04:01:47.766Z,1.60
2018-11-26T04:04:17.574Z,1.50
2018-11-26T04:06:47.514Z,1.50
2018-11-26T04:09:17.494Z,1.70
2018-11-26T04:11:47.513Z,1.43
2018-11-26T04:14:17.413Z,1.70
2018-11-26T04:16:47.418Z,1.63
2018-11-26T04:19:17.996Z,1.60
2018-11-26T04:21:47.813Z,1.70
2018-11-26T04:24:17.825Z,1.53
2018-11-26T04:26:47.854Z,1.53
2018-11-26T04:29:17.918Z,1.57
2018-11-26T04:31:47.425Z,1.63
2018-11-26T04:34:17.316Z,1.50
2018-11-26T04:36:47.294Z,1.40
2018-11-26T04:39:17.175Z,1.40
2018-11-26T04:41:47.145Z,1.33
2018-11-26T04:44:16.985Z,1.60
2018-11-26T04:46:47.143Z,1.40
2018-11-26T04:49:17.134Z,1.67
2018-11-26T04:51:47.114Z,1.40
2018-11-26T04:54:16.916Z,1.50
2018-11-26T04:56:47.123Z,1.60
2018-11-26T04:59:17.217Z,1.70
2018-11-26T05:01:47.907Z,1.47
2018-11-26T05:04:17.883Z,1.50
2018-11-26T05:06:47.794Z,1.70
2018-11-26T05:09:17.704Z,1.60
2018-11-26T05:11:47.764Z,1.43
2018-11-26T05:14:17.805Z,1.50
2018-11-26T05:16:47.733Z,1.60
2018-11-26T05:19:17.333Z,1.50
2018-11-26T05:21:47.254Z,1.90
2018-11-26T05:24:17.544Z,1.70
2018-11-26T05:26:47.514Z,1.77
2018-11-26T05:29:17.516Z,1.73
2018-11-26T05:31:47.355Z,1.73
2018-11-26T05:34:17.416Z,1.57
2018-11-26T05:36:47.344Z,1.60
2018-11-26T05:39:17.234Z,1.50
2018-11-26T05:41:47.054Z,1.83
2018-11-26T05:44:17.554Z,1.73
2018-11-26T05:46:47.654Z,2.97
2018-11-26T05:49:18.714Z,3.40
2018-11-26T05:51:48.904Z,3.23
2018-11-26T05:54:19.093Z,3.60
2018-11-26T05:56:49.104Z,4.27
2018-11-26T05:59:19.002Z,4.30
2018-11-26T06:01:49.314Z,4.57
2018-11-26T06:04:19.473Z,4.87
2018-11-26T06:06:49.573Z,3.23
2018-11-26T06:09:19.680Z,3.80
2018-11-26T06:11:49.985Z,3.40
2018-11-26T06:14:19.604Z,3.67
2018-11-26T06:16:53.717Z,3.17
2018-11-26T06:19:20.233Z,4.17
2018-11-26T06:21:50.283Z,3.57
2018-11-26T06:24:20.299Z,3.70
2018-11-26T06:26:56.703Z,3.10
2018-11-26T06:29:26.574Z,3.10
2018-11-26T06:31:56.494Z,3.70
2018-11-26T06:34:26.374Z,2.70
2018-11-26T06:36:56.200Z,2.50
2018-11-26T06:39:26.119Z,3.20
2018-11-26T06:41:56.197Z,3.07
2018-11-26T06:44:26.190Z,3.00
2018-11-26T06:46:56.483Z,3.03
2018-11-26T06:49:26.474Z,2.50
2018-11-26T06:51:56.534Z,3.23
2018-11-26T06:54:26.583Z,3.70
2018-11-26T06:56:56.563Z,3.70
2018-11-26T06:59:26.633Z,3.50
2018-11-26T07:01:56.734Z,4.07
2018-11-26T07:04:26.714Z,3.73
2018-11-26T07:06:56.743Z,4.50
2018-11-26T07:09:26.657Z,4.13
2018-11-26T07:11:56.474Z,3.67
2018-11-26T07:14:26.553Z,4.70
2018-11-26T07:16:56.784Z,3.90
2018-11-26T07:19:26.894Z,4.17
2018-11-26T07:21:56.984Z,3.77
2018-11-26T07:24:27.033Z,4.60
2018-11-26T07:26:56.984Z,3.47
2018-11-26T07:29:27.474Z,4.40
2018-11-26T07:31:57.384Z,4.33
2018-11-26T07:34:27.634Z,3.90
2018-11-26T07:36:57.696Z,3.87
2018-11-26T07:39:27.553Z,4.03
2018-11-26T07:41:57.613Z,4.13
2018-11-26T07:44:27.755Z,4.50
2018-11-26T07:46:57.714Z,4.10
2018-11-26T07:49:27.593Z,3.67
2018-11-26T07:51:56.973Z,3.63
2018-11-26T07:54:27.203Z,3.27
2018-11-26T07:56:57.924Z,3.67
2018-11-26T07:59:28.414Z,3.00
2018-11-26T08:01:58.394Z,3.20
2018-11-26T08:04:28.333Z,2.97
2018-11-26T08:06:58.444Z,3.50
2018-11-26T08:09:28.564Z,3.30
2018-11-26T08:11:58.663Z,3.30
2018-11-26T08:14:28.774Z,3.53
2018-11-26T08:16:58.834Z,3.10
2018-11-26T08:19:28.595Z,3.33
2018-11-26T08:21:58.613Z,3.23
2018-11-26T08:24:28.527Z,3.37
2018-11-26T08:26:58.464Z,3.40
2018-11-26T08:29:28.383Z,3.33
2018-11-26T08:31:59.075Z,3.10
2018-11-26T08:34:29.024Z,3.13
2018-11-26T08:37:04.584Z,3.50
2018-11-26T08:39:37.054Z,3.13
2018-11-26T08:42:12.344Z,3.53
2018-11-26T08:44:45.314Z,3.30
2018-11-26T08:47:23.475Z,3.60
2018-11-26T08:49:53.825Z,3.80
2018-11-26T08:52:23.934Z,3.90
2018-11-26T08:54:53.664Z,4.30
2018-11-26T08:57:23.623Z,4.00
2018-11-26T08:59:53.825Z,4.30
2018-11-26T09:02:28.103Z,4.53
2018-11-26T09:05:00.446Z,3.60
2018-11-26T09:07:30.697Z,3.60
2018-11-26T09:10:00.798Z,3.70
2018-11-26T09:12:30.763Z,3.90
2018-11-26T09:15:00.798Z,4.13
2018-11-26T09:17:30.904Z,4.60
2018-11-26T09:20:00.844Z,4.10
2018-11-26T09:22:30.675Z,4.67
2018-11-26T09:25:01.274Z,4.83
2018-11-26T09:27:31.525Z,4.83
2018-11-26T09:30:01.524Z,4.63
2018-11-26T09:32:31.695Z,4.87
2018-11-26T09:35:01.615Z,4.20
2018-11-26T09:37:31.355Z,4.50
2018-11-26T09:40:01.335Z,4.03
2018-11-26T09:42:31.425Z,4.43
2018-11-26T09:45:01.295Z,4.90
2018-11-26T09:47:31.263Z,4.90
2018-11-26T09:50:01.314Z,4.97
2018-11-26T09:52:31.364Z,4.93
2018-11-26T09:55:01.386Z,4.97
2018-11-26T09:57:31.434Z,4.93
2018-11-26T10:00:01.336Z,5.07
2018-11-26T10:02:31.324Z,4.63
2018-11-26T10:05:01.443Z,4.93
2018-11-26T10:07:31.494Z,5.53
2018-11-26T10:10:01.787Z,6.20
2018-11-26T10:12:31.617Z,5.30
2018-11-26T10:15:01.923Z,4.50
2018-11-26T10:17:32.113Z,5.27
2018-11-26T10:20:02.163Z,4.40
2018-11-26T10:22:32.154Z,4.30
2018-11-26T10:25:05.961Z,4.23
2018-11-26T10:27:32.771Z,4.30
2018-11-26T10:30:02.983Z,4.40
2018-11-26T10:32:33.054Z,4.20
2018-11-26T10:35:03.123Z,4.13
2018-11-26T10:37:33.403Z,4.80
2018-11-26T10:40:03.613Z,4.13
2018-11-26T10:42:33.763Z,4.10
2018-11-26T10:45:03.854Z,4.13
2018-11-26T10:47:33.834Z,4.67
2018-11-26T10:50:03.963Z,4.43
2018-11-26T10:52:34.242Z,4.43
2018-11-26T10:55:04.784Z,4.67
2018-11-26T10:57:34.934Z,4.67
2018-11-26T11:00:06.304Z,4.97
2018-11-26T11:02:42.593Z,4.30
2018-11-26T11:05:13.063Z,4.13
2018-11-26T11:07:43.264Z,3.70
2018-11-26T11:10:17.125Z,4.40
2018-11-26T11:12:47.275Z,3.73
2018-11-26T11:15:17.494Z,4.27
2018-11-26T11:17:47.797Z,4.10
2018-11-26T11:20:27.625Z,3.67
2018-11-26T11:22:57.975Z,4.13
2018-11-26T11:25:28.373Z,3.57
2018-11-26T11:27:58.584Z,4.10
2018-11-26T11:30:29.426Z,4.00
2018-11-26T11:32:59.293Z,4.33
2018-11-26T11:35:29.412Z,4.20
2018-11-26T11:37:59.283Z,3.80
2018-11-26T11:40:31.063Z,4.40
2018-11-26T11:43:01.885Z,4.40
2018-11-26T11:45:33.712Z,4.43
2018-11-26T11:48:03.723Z,4.70
2018-11-26T11:50:33.823Z,3.90
2018-11-26T11:53:03.823Z,4.07
2018-11-26T11:55:34.113Z,4.37
2018-11-26T11:58:04.322Z,3.67
2018-11-26T12:00:41.463Z,4.00
2018-11-26T12:03:14.295Z,5.40
2018-11-26T12:05:45.304Z,4.77
2018-11-26T12:08:15.763Z,4.20
2018-11-26T12:10:45.851Z,3.80
2018-11-26T12:13:16.603Z,4.00
2018-11-26T12:15:50.223Z,4.33
2018-11-26T12:18:20.303Z,4.97
2018-11-26T12:20:50.462Z,4.10
2018-11-26T12:23:20.566Z,4.40
2018-11-26T12:25:50.533Z,4.07
2018-11-26T12:28:20.612Z,4.00
2018-11-26T12:30:50.454Z,3.50
2018-11-26T12:33:20.432Z,3.77
2018-11-26T12:35:50.392Z,4.70
2018-11-26T12:38:20.814Z,5.30
2018-11-26T12:40:51.433Z,4.87
2018-11-26T12:43:21.493Z,4.63
2018-11-26T12:45:51.454Z,4.80
2018-11-26T12:48:21.662Z,4.80
2018-11-26T12:50:51.462Z,4.83
2018-11-26T12:53:21.512Z,4.40
2018-11-26T12:55:51.573Z,4.70
2018-11-26T12:58:22.131Z,4.90
2018-11-26T13:00:52.262Z,4.60
2018-11-26T13:03:22.343Z,4.87
2018-11-26T13:05:52.017Z,5.17
2018-11-26T13:08:22.153Z,5.47
2018-11-26T13:10:51.844Z,5.27
2018-11-26T13:13:22.262Z,5.43
2018-11-26T13:15:52.627Z,5.43
2018-11-26T13:18:22.673Z,5.07
2018-11-26T13:20:52.672Z,5.47
2018-11-26T13:23:22.643Z,5.30
2018-11-26T13:25:52.702Z,5.20
2018-11-26T13:28:22.735Z,5.57
2018-11-26T13:30:52.753Z,5.27
2018-11-26T13:33:22.653Z,5.77
2018-11-26T13:35:52.973Z,5.10
2018-11-26T13:38:22.922Z,6.23
2018-11-26T13:40:53.063Z,4.90
2018-11-26T13:43:23.006Z,4.97
2018-11-26T13:45:54.003Z,4.97
2018-11-26T13:48:24.973Z,4.40
2018-11-26T13:50:58.465Z,4.77
2018-11-26T13:53:28.502Z,4.97
2018-11-26T13:55:58.434Z,5.03
2018-11-26T13:58:28.595Z,5.63
2018-11-26T14:00:58.665Z,5.67
2018-11-26T14:03:28.629Z,5.40
2018-11-26T14:05:58.653Z,4.90
2018-11-26T14:08:28.993Z,5.20
2018-11-26T14:10:58.903Z,4.40
2018-11-26T14:13:28.653Z,4.10
2018-11-26T14:15:59.022Z,4.00
2018-11-26T14:18:29.564Z,4.07
2018-11-26T14:21:00.043Z,4.87
2018-11-26T14:23:30.043Z,4.40
2018-11-26T14:25:59.992Z,4.20
2018-11-26T14:28:30.273Z,4.50
2018-11-26T14:31:00.166Z,4.90
2018-11-26T14:33:30.204Z,5.13
2018-11-26T14:36:00.034Z,6.20
2018-11-26T14:38:30.233Z,6.90
2018-11-26T14:41:00.184Z,8.10
2018-11-26T14:43:30.459Z,9.03
2018-11-26T14:46:00.463Z,8.47
2018-11-26T14:48:30.165Z,8.07
2018-11-26T14:51:00.154Z,7.83
2018-11-26T14:53:30.293Z,8.53
2018-11-26T14:56:00.294Z,7.67
2018-11-26T14:58:30.282Z,8.00
2018-11-26T15:01:00.424Z,8.00
2018-11-26T15:03:30.673Z,8.00
2018-11-26T15:06:00.694Z,7.67
2018-11-26T15:08:30.574Z,7.60
2018-11-26T15:11:00.643Z,7.50
2018-11-26T15:13:30.794Z,8.10
2018-11-26T15:16:00.818Z,8.50
2018-11-26T15:18:32.383Z,9.10
2018-11-26T15:21:02.283Z,9.30
2018-11-26T15:23:32.863Z,8.80
2018-11-26T15:26:03.175Z,9.80
2018-11-26T15:28:33.134Z,9.10
2018-11-26T15:31:04.953Z,9.77
2018-11-26T15:33:36.031Z,8.97
2018-11-26T15:36:06.673Z,9.07
2018-11-26T15:38:36.163Z,9.43
2018-11-26T15:41:06.183Z,9.07
2018-11-26T15:43:38.683Z,9.57
2018-11-26T15:46:08.824Z,9.40
2018-11-26T15:48:39.494Z,8.67
2018-11-26T15:51:09.722Z,8.83
2018-11-26T15:53:40.214Z,8.80
2018-11-26T15:56:10.204Z,8.00
2018-11-26T15:58:40.303Z,8.10
2018-11-26T16:01:11.511Z,8.40
2018-11-26T16:03:41.903Z,8.07
2018-11-26T16:06:12.384Z,9.00
2018-11-26T16:08:42.773Z,7.70
2018-11-26T16:11:13.153Z,8.00
2018-11-26T16:13:43.392Z,8.30
2018-11-26T16:16:14.854Z,8.03
2018-11-26T16:18:46.066Z,8.03
2018-11-26T16:21:16.444Z,8.30
2018-11-26T16:23:47.838Z,7.47
2018-11-26T16:26:18.163Z,7.70
2018-11-26T16:28:51.094Z,8.10
2018-11-26T16:31:23.814Z,8.17
2018-11-26T16:33:53.874Z,8.93
2018-11-26T16:36:24.444Z,8.73
2018-11-26T16:38:56.633Z,7.87
2018-11-26T16:41:28.014Z,8.00
2018-11-26T16:43:58.055Z,8.43
2018-11-26T16:46:28.128Z,8.40
2018-11-26T16:48:58.053Z,9.20
2018-11-26T16:51:31.433Z,8.43
2018-11-26T16:54:02.313Z,8.63
2018-11-26T16:56:32.313Z,9.73
2018-11-26T16:59:02.291Z,8.67
2018-11-26T17:01:32.404Z,9.33
2018-11-26T17:04:02.523Z,8.63
2018-11-26T17:06:32.813Z,8.70
2018-11-26T17:09:02.935Z,8.90
2018-11-26T17:11:32.643Z,8.80
2018-11-26T17:14:02.672Z,10.03
2018-11-26T17:16:32.145Z,9.23
2018-11-26T17:19:02.754Z,9.40
2018-11-26T17:21:32.894Z,9.83
2018-11-26T17:24:03.042Z,9.20
2018-11-26T17:26:33.193Z,9.63
2018-11-26T17:29:03.444Z,10.00
2018-11-26T17:31:33.465Z,10.17
2018-11-26T17:34:03.614Z,10.20
2018-11-26T17:36:33.354Z,10.17
2018-11-26T17:39:04.153Z,10.50
2018-11-26T17:41:34.104Z,10.90
2018-11-26T17:44:03.994Z,11.13
2018-11-26T17:46:33.804Z,10.90
2018-11-26T17:49:04.054Z,11.40
2018-11-26T17:51:33.924Z,11.37
2018-11-26T17:54:04.483Z,11.07
2018-11-26T17:56:34.903Z,11.80
2018-11-26T17:59:05.203Z,11.87
2018-11-26T18:01:40.624Z,11.80
2018-11-26T18:04:11.533Z,12.40
2018-11-26T18:06:41.614Z,11.47
2018-11-26T18:09:13.494Z,12.93
2018-11-26T18:11:43.584Z,12.47
2018-11-26T18:14:13.625Z,12.67
2018-11-26T18:16:43.963Z,13.30
2018-11-26T18:19:14.124Z,13.60
2018-11-26T18:21:44.064Z,13.30
2018-11-26T18:24:14.324Z,13.53
2018-11-26T18:26:44.602Z,13.17
2018-11-26T18:29:14.654Z,14.50
2018-11-26T18:31:45.593Z,13.77
2018-11-26T18:34:15.603Z,13.73
2018-11-26T18:36:45.683Z,14.17
2018-11-26T18:39:15.663Z,14.23
2018-11-26T18:41:45.754Z,14.40
2018-11-26T18:44:16.104Z,14.83
2018-11-26T18:46:46.305Z,14.67
2018-11-26T18:49:16.393Z,15.07
2018-11-26T18:51:46.386Z,14.87
2018-11-26T18:54:16.745Z,15.77
2018-11-26T18:56:46.603Z,14.43
2018-11-26T18:59:17.213Z,14.80
2018-11-26T19:01:47.112Z,14.80
2018-11-26T19:04:17.114Z,14.50
2018-11-26T19:06:47.384Z,14.67
2018-11-26T19:09:17.753Z,15.13
2018-11-26T19:11:47.993Z,14.67
2018-11-26T19:14:22.144Z,14.17
2018-11-26T19:16:52.885Z,13.70
2018-11-26T19:19:22.984Z,15.67
2018-11-26T19:21:52.895Z,15.07
2018-11-26T19:24:23.077Z,15.17
2018-11-26T19:26:53.023Z,14.70
2018-11-26T19:29:23.103Z,14.53
2018-11-26T19:31:55.997Z,14.10
2018-11-26T19:34:23.435Z,14.63
2018-11-26T19:36:53.534Z,15.33
2018-11-26T19:39:23.664Z,14.90
2018-11-26T19:41:53.903Z,15.33
2018-11-26T19:44:24.133Z,14.67
2018-11-26T19:46:54.083Z,15.00
2018-11-26T19:49:24.299Z,15.17
2018-11-26T19:51:54.344Z,14.73
2018-11-26T19:54:24.602Z,14.10
2018-11-26T19:56:54.592Z,15.27
2018-11-26T19:59:24.758Z,16.10
2018-11-26T20:01:55.502Z,15.60
2018-11-26T20:04:34.905Z,14.23
2018-11-26T20:07:05.533Z,15.67
2018-11-26T20:09:35.223Z,15.37
2018-11-26T20:12:05.573Z,16.00
2018-11-26T20:14:36.123Z,15.03
2018-11-26T20:17:06.882Z,14.80
2018-11-26T20:19:36.514Z,14.93
2018-11-26T20:22:07.243Z,14.07
2018-11-26T20:24:37.403Z,14.90
2018-11-26T20:27:07.503Z,14.70
2018-11-26T20:29:37.277Z,14.87
2018-11-26T20:32:07.277Z,16.43
2018-11-26T20:34:37.532Z,15.47
2018-11-26T20:37:07.814Z,15.43
2018-11-26T20:39:38.043Z,15.77
2018-11-26T20:42:08.263Z,15.73
2018-11-26T20:44:38.473Z,15.87
2018-11-26T20:47:09.153Z,15.70
2018-11-26T20:49:38.844Z,16.23
2018-11-26T20:52:09.063Z,16.43
2018-11-26T20:54:39.102Z,16.47
2018-11-26T20:57:09.256Z,16.17
2018-11-26T20:59:39.404Z,16.47
2018-11-26T21:02:09.455Z,17.40
2018-11-26T21:04:39.493Z,17.30
2018-11-26T21:07:09.439Z,17.03
2018-11-26T21:09:39.863Z,16.67
2018-11-26T21:12:10.176Z,16.23
2018-11-26T21:14:40.332Z,16.43
2018-11-26T21:17:10.545Z,16.77
2018-11-26T21:19:40.733Z,17.67
2018-11-26T21:22:10.934Z,17.00
2018-11-26T21:24:41.124Z,16.83
2018-11-26T21:27:11.114Z,16.47
2018-11-26T21:29:41.113Z,16.23
2018-11-26T21:32:11.323Z,16.93
2018-11-26T21:34:41.312Z,16.07
2018-11-26T21:37:11.253Z,16.07
2018-11-26T21:39:41.535Z,16.60
2018-11-26T21:42:11.603Z,16.83
2018-11-26T21:44:41.923Z,16.90
2018-11-26T21:47:11.953Z,17.00
2018-11-26T21:49:42.312Z,16.03
2018-11-26T21:52:12.464Z,16.97
2018-11-26T21:54:42.576Z,17.57
2018-11-26T21:57:12.593Z,16.20
2018-11-26T21:59:42.713Z,16.57
2018-11-26T22:02:12.783Z,16.80
2018-11-26T22:04:43.156Z,17.30
2018-11-26T22:07:13.293Z,16.53
2018-11-26T22:09:43.353Z,16.37
2018-11-26T22:12:13.502Z,17.43
2018-11-26T22:14:43.472Z,16.43
2018-11-26T22:17:13.633Z,15.23
2018-11-26T22:19:43.913Z,15.90
2018-11-26T22:22:13.285Z,16.60
2018-11-26T22:24:42.706Z,15.90
2018-11-26T22:27:12.932Z,16.00
2018-11-26T22:29:43.313Z,16.00
2018-11-26T22:32:13.463Z,17.47
2018-11-26T22:34:43.722Z,15.67
2018-11-26T22:37:13.796Z,16.83
2018-11-26T22:39:44.214Z,16.63
2018-11-26T22:42:14.212Z,15.17
2018-11-26T22:44:44.482Z,16.20
2018-11-26T22:47:14.553Z,15.70
2018-11-26T22:49:44.723Z,16.37
2018-11-26T22:52:14.673Z,15.13
2018-11-26T22:54:44.777Z,14.10
2018-11-26T22:57:14.982Z,14.47
2018-11-26T22:59:45.703Z,14.77
2018-11-26T23:02:15.843Z,14.63
2018-11-26T23:04:45.853Z,14.50
2018-11-26T23:07:16.222Z,14.30
2018-11-26T23:09:46.362Z,14.37
2018-11-26T23:12:16.511Z,14.00
2018-11-26T23:14:46.412Z,13.57
2018-11-26T23:17:16.752Z,14.50
2018-11-26T23:19:46.763Z,14.03
2018-11-26T23:22:16.753Z,15.20
2018-11-26T23:24:46.742Z,14.20
2018-11-26T23:27:16.922Z,14.97
2018-11-26T23:29:47.194Z,13.63
2018-11-26T23:32:17.272Z,13.67
2018-11-26T23:34:46.931Z,14.13
2018-11-26T23:37:17.395Z,14.63
2018-11-26T23:39:47.253Z,13.23
2018-11-26T23:42:17.393Z,13.53
2018-11-26T23:44:47.593Z,13.53
2018-11-26T23:47:17.823Z,14.43
2018-11-26T23:49:48.132Z,15.03
2018-11-26T23:52:18.251Z,13.03
2018-11-26T23:54:48.233Z,13.67
2018-11-26T23:57:17.953Z,14.63
2018-11-26T23:59:48.105Z,14.40
